Time;durP1;ratioP1;P1;durP2;ratioP2;P2;SDS_P1;SDS_P2;PMS_P1;PMS_P2;Temp;Humidity;BMP_temperature;BMP_pressure;BME280_temperature;BME280_humidity;BME280_pressure;Samples;Min_cycle;Max_cycle;Signal;HPM_P1;HPM_P2
2021/06/12 00:01:15;;;;;;;19.12;17.20;;;;;;;14.06;74.39;98865.11;2169101;82;20933;-80
2021/06/12 00:04:16;;;;;;;18.98;17.17;;;;;;;14.09;75.27;98866.41;2168935;82;21392;-80
2021/06/12 00:07:17;;;;;;;19.85;17.77;;;;;;;14.15;75.83;98862.02;2168757;82;21432;-80
2021/06/12 00:10:19;;;;;;;19.02;17.00;;;;;;;14.22;75.47;98855.00;2168642;82;21016;-79
2021/06/12 00:13:20;;;;;;;18.57;16.87;;;;;;;14.20;75.13;98853.70;2168930;82;20916;-79
2021/06/12 00:16:21;;;;;;;19.42;16.70;;;;;;;14.18;75.00;98854.58;2169020;82;20901;-80
2021/06/12 00:19:22;;;;;;;18.65;16.73;;;;;;;14.14;75.26;98859.40;2169183;82;21304;-79
2021/06/12 00:22:23;;;;;;;16.80;15.15;;;;;;;14.09;75.09;98862.03;2169163;82;20921;-79
2021/06/12 00:25:24;;;;;;;17.37;15.63;;;;;;;14.08;75.04;98859.41;2169491;82;21457;-79
2021/06/12 00:28:25;;;;;;;23.40;19.10;;;;;;;14.03;74.68;98856.80;2169028;82;20917;-78
2021/06/12 00:31:26;;;;;;;19.10;17.40;;;;;;;13.95;74.92;98860.75;2169356;82;20917;-79
2021/06/12 00:34:27;;;;;;;17.40;15.85;;;;;;;13.95;74.93;98856.81;2169233;82;20940;-80
2021/06/12 00:37:28;;;;;;;17.07;15.38;;;;;;;13.94;74.75;98854.19;2168773;82;21023;-79
2021/06/12 00:40:29;;;;;;;17.15;15.65;;;;;;;13.94;74.53;98851.56;2168845;82;20928;-79
2021/06/12 00:43:30;;;;;;;18.30;16.50;;;;;;;13.92;74.75;98851.56;2169124;82;21024;-79
2021/06/12 00:46:31;;;;;;;22.30;20.20;;;;;;;13.90;74.69;98857.25;2168996;82;20944;-78
2021/06/12 00:49:32;;;;;;;148.72;30.02;;;;;;;13.86;75.07;98857.23;2169005;82;21303;-79
2021/06/12 00:52:32;;;;;;;29.45;21.17;;;;;;;13.95;75.34;98858.56;2168960;82;20976;-79
2021/06/12 00:55:33;;;;;;;21.10;19.10;;;;;;;13.94;75.06;98854.19;2169173;82;20948;-79
2021/06/12 00:58:35;;;;;;;21.48;19.27;;;;;;;13.84;74.65;98848.05;2169121;82;20916;-79
2021/06/12 01:01:36;;;;;;;22.95;20.20;;;;;;;13.85;75.23;98846.30;2168992;82;20971;-79
2021/06/12 01:04:38;;;;;;;21.55;17.87;;;;;;;13.84;75.01;98844.11;2169013;82;20976;-79
2021/06/12 01:07:39;;;;;;;21.82;19.42;;;;;;;13.79;75.01;98839.31;2169007;81;20987;-78
2021/06/12 01:10:40;;;;;;;27.50;24.55;;;;;;;13.78;75.26;98836.69;2169145;82;20897;-79
2021/06/12 01:13:41;;;;;;;23.73;21.27;;;;;;;13.79;75.50;98838.00;2169277;82;20969;-79
2021/06/12 01:16:42;;;;;;;27.67;24.77;;;;;;;13.84;75.49;98832.74;2169318;82;20925;-79
2021/06/12 01:19:43;;;;;;;26.02;23.62;;;;;;;13.86;75.59;98830.98;2168741;82;20956;-79
2021/06/12 01:22:44;;;;;;;24.85;22.45;;;;;;;13.90;75.55;98825.77;2169629;82;21305;-80
2021/06/12 01:25:45;;;;;;;20.90;18.70;;;;;;;13.97;75.60;98821.38;2169615;82;20948;-79
2021/06/12 01:28:46;;;;;;;29.20;18.62;;;;;;;14.07;75.71;98819.61;2169083;82;20932;-79
2021/06/12 01:31:47;;;;;;;25.70;18.32;;;;;;;14.09;75.58;98822.66;2169099;82;20940;-79
2021/06/12 01:34:47;;;;;;;21.57;17.70;;;;;;;14.18;76.00;98817.83;2169336;82;20925;-78
2021/06/12 01:37:49;;;;;;;19.27;17.23;;;;;;;14.22;75.77;98820.88;2168911;81;21035;-79
2021/06/12 01:40:49;;;;;;;19.25;17.20;;;;;;;14.24;75.63;98816.50;2169159;82;20933;-79
2021/06/12 01:43:50;;;;;;;25.62;17.65;;;;;;;14.24;75.54;98817.81;2169324;82;20960;-79
2021/06/12 01:46:51;;;;;;;19.65;17.65;;;;;;;14.18;75.49;98816.52;2169376;82;20947;-78
2021/06/12 01:49:52;;;;;;;18.70;16.70;;;;;;;14.15;75.34;98815.21;2169422;82;20971;-79
2021/06/12 01:52:53;;;;;;;18.75;16.62;;;;;;;14.07;75.16;98818.30;2169272;82;20971;-79
2021/06/12 01:55:54;;;;;;;18.82;16.95;;;;;;;13.97;75.28;98810.88;2169251;82;21349;-79
2021/06/12 01:58:55;;;;;;;21.65;16.48;;;;;;;13.88;75.25;98802.59;2169041;82;20897;-80
2021/06/12 02:01:56;;;;;;;18.80;16.82;;;;;;;13.85;75.35;98799.07;2168835;82;21360;-79
2021/06/12 02:04:58;;;;;;;17.62;15.45;;;;;;;13.88;75.23;98804.34;2169543;82;20948;-79
2021/06/12 02:07:59;;;;;;;17.60;15.80;;;;;;;13.93;75.35;98800.83;2174125;81;21035;-78
2021/06/12 02:11:00;;;;;;;19.42;17.35;;;;;;;13.98;75.17;98806.95;2192435;81;21307;-79
2021/06/12 02:14:01;;;;;;;19.05;16.85;;;;;;;14.02;75.35;98808.69;2192584;81;20984;-79
2021/06/12 02:17:02;;;;;;;18.35;15.98;;;;;;;14.08;75.53;98801.67;2192512;81;20920;-78
2021/06/12 02:20:03;;;;;;;20.10;16.80;;;;;;;14.08;75.22;98803.86;2192338;81;20947;-79
2021/06/12 02:23:04;;;;;;;19.10;17.12;;;;;;;14.09;75.35;98799.48;2192431;81;20962;-79
2021/06/12 02:26:05;;;;;;;18.70;16.75;;;;;;;14.08;75.42;98801.23;2192258;81;21378;-79
2021/06/12 02:29:06;;;;;;;19.05;16.20;;;;;;;14.07;75.31;98798.61;2192514;81;21197;-79
2021/06/12 02:32:07;;;;;;;19.12;15.55;;;;;;;14.06;75.38;98806.92;2192698;81;20995;-80
2021/06/12 02:35:08;;;;;;;16.93;15.03;;;;;;;14.05;75.31;98801.23;2192698;81;20964;-79
2021/06/12 02:38:09;;;;;;;21.10;18.85;;;;;;;14.05;75.21;98796.43;2192527;80;21031;-78
2021/06/12 02:41:10;;;;;;;16.93;15.23;;;;;;;14.05;75.27;98804.30;2192432;81;20956;-79
2021/06/12 02:44:11;;;;;;;49.50;18.60;;;;;;;14.06;75.16;98802.11;2192306;81;20979;-79
2021/06/12 02:47:12;;;;;;;17.15;15.08;;;;;;;14.11;75.08;98802.53;2192597;81;21343;-79
2021/06/12 02:50:13;;;;;;;19.27;15.15;;;;;;;14.11;74.76;98805.16;2192480;81;20969;-79
2021/06/12 02:53:14;;;;;;;19.37;16.12;;;;;;;14.06;74.74;98803.42;2192549;81;21348;-79
2021/06/12 02:56:16;;;;;;;37.73;17.95;;;;;;;14.03;74.83;98809.55;2192375;81;21020;-77
2021/06/12 02:59:17;;;;;;;21.80;17.48;;;;;;;14.06;75.00;98808.67;2192482;81;21009;-79
2021/06/12 03:02:18;;;;;;;18.07;16.27;;;;;;;14.06;74.89;98812.61;2192434;81;21403;-78
2021/06/12 03:05:19;;;;;;;17.60;15.55;;;;;;;14.05;74.56;98813.49;2191997;81;21378;-79
2021/06/12 03:08:20;;;;;;;18.35;16.27;;;;;;;14.07;74.55;98816.55;2192056;80;21030;-79
2021/06/12 03:11:23;;;;;;;18.12;15.05;;;;;;;14.10;74.53;98816.98;2192190;81;20976;-79
2021/06/12 03:14:24;;;;;;;18.17;14.10;;;;;;;14.14;74.44;98820.03;2192218;81;20976;-77
2021/06/12 03:17:25;;;;;;;15.50;13.32;;;;;;;14.21;74.40;98829.63;2192342;81;20915;-79
2021/06/12 03:20:26;;;;;;;19.02;14.83;;;;;;;14.23;74.26;98827.44;2192329;81;20912;-79
2021/06/12 03:23:27;;;;;;;19.27;17.30;;;;;;;14.29;74.22;98825.23;2192669;81;20967;-79
2021/06/12 03:26:29;;;;;;;17.42;11.70;;;;;;;14.33;74.22;98823.03;2192188;81;20936;-79
2021/06/12 03:29:30;;;;;;;11.05;9.93;;;;;;;14.39;74.16;98824.31;2192675;81;21406;-79
2021/06/12 03:32:34;;;;;;;11.53;10.32;;;;;;;14.45;74.01;98824.77;2192944;81;21003;-80
2021/06/12 03:35:35;;;;;;;10.80;9.58;;;;;;;14.51;73.92;98828.24;2192652;81;20963;-79
2021/06/12 03:38:36;;;;;;;96.95;16.57;;;;;;;14.56;73.82;98831.72;2192567;80;21462;-79
2021/06/12 03:41:37;;;;;;;14.83;10.45;;;;;;;14.60;73.91;98832.14;2192911;81;21335;-80
2021/06/12 03:44:38;;;;;;;12.58;10.82;;;;;;;14.66;73.86;98832.11;2192922;81;20962;-79
2021/06/12 03:47:39;;;;;;;14.15;10.80;;;;;;;14.69;73.76;98828.59;2192628;81;20919;-79
2021/06/12 03:50:40;;;;;;;12.23;11.12;;;;;;;14.73;73.92;98825.08;2192293;81;20900;-79
2021/06/12 03:53:44;;;;;;;17.50;14.07;;;;;;;14.78;73.91;98827.27;2192481;81;20928;-82
2021/06/12 03:56:45;;;;;;;15.20;13.68;;;;;;;14.87;73.83;98830.28;2193544;81;20995;-80
2021/06/12 03:59:45;;;;;;;16.87;14.80;;;;;;;14.97;73.78;98827.59;2192801;81;20911;-78
2021/06/12 04:02:47;;;;;;;17.75;15.53;;;;;;;15.00;73.61;98825.83;2192241;81;20988;-79
2021/06/12 04:05:48;;;;;;;17.15;15.30;;;;;;;15.06;73.52;98825.35;2192384;81;21047;-79
2021/06/12 04:08:49;;;;;;;22.10;16.32;;;;;;;15.11;73.33;98826.20;2192056;80;20991;-79
2021/06/12 04:11:50;;;;;;;16.95;15.15;;;;;;;15.19;73.21;98823.52;2192784;81;21454;-78
2021/06/12 04:14:51;;;;;;;28.85;17.07;;;;;;;15.19;72.95;98824.38;2192349;81;20919;-77
2021/06/12 04:17:59;;;;;;;21.30;17.37;;;;;;;15.24;72.83;98822.59;2192591;81;20884;-80
2021/06/12 04:20:55;;;;;;;20.30;15.55;;;;;;;15.49;72.93;98818.02;2191940;81;21363;-80
2021/06/12 04:23:56;;;;;;;79.45;20.05;;;;;;;15.76;72.50;98818.28;2192669;81;20959;-82
2021/06/12 04:26:57;;;;;;;25.77;16.52;;;;;;;16.10;72.07;98814.87;2193047;81;20999;-80
2021/06/12 04:29:58;;;;;;;17.75;15.95;;;;;;;16.47;71.47;98819.30;2192904;81;21007;-80
2021/06/12 04:32:59;;;;;;;21.95;18.73;;;;;;;16.77;70.33;98822.46;2193151;81;20927;-80
2021/06/12 04:36:00;;;;;;;19.67;15.98;;;;;;;17.06;69.60;98828.20;2192494;81;20959;-79
2021/06/12 04:39:01;;;;;;;21.93;19.42;;;;;;;17.33;68.81;98818.13;2192603;80;21043;-79
2021/06/12 04:42:02;;;;;;;22.70;20.23;;;;;;;17.68;68.36;98826.86;2192801;81;21292;-79
2021/06/12 04:45:03;;;;;;;24.05;21.33;;;;;;;17.99;67.61;98818.81;2193011;81;21007;-79
2021/06/12 04:48:04;;;;;;;23.65;19.67;;;;;;;18.29;67.00;98816.52;2192889;81;21292;-80
2021/06/12 04:51:06;;;;;;;28.07;19.45;;;;;;;18.69;66.02;98817.48;2192540;81;20951;-80
2021/06/12 04:54:06;;;;;;;19.05;15.98;;;;;;;19.41;65.22;98822.50;2193597;81;20983;-81
2021/06/12 04:57:07;;;;;;;16.65;14.50;;;;;;;20.08;63.36;98824.82;2193106;81;20915;-80
2021/06/12 05:00:08;;;;;;;15.35;13.08;;;;;;;20.78;61.18;98825.52;2192265;81;20924;-78
2021/06/12 05:03:09;;;;;;;17.12;13.32;;;;;;;20.59;57.53;98819.88;2192043;81;20915;-77
2021/06/12 05:06:10;;;;;;;16.02;14.43;;;;;;;20.62;58.44;98827.75;2191949;81;20966;-77
2021/06/12 05:09:11;;;;;;;18.00;14.53;;;;;;;20.25;57.40;98828.34;2176436;80;21055;-77
2021/06/12 05:12:12;;;;;;;17.00;14.35;;;;;;;20.15;57.40;98825.07;2147612;83;20935;-77
2021/06/12 05:15:13;;;;;;;14.65;13.22;;;;;;;19.95;57.44;98812.81;2147820;83;20924;-75
2021/06/12 05:18:16;;;;;;;15.53;13.93;;;;;;;19.81;59.00;98807.84;2147798;83;20927;-77
2021/06/12 05:24:21;;;;;;;15.80;14.23;;;;;;;19.54;58.89;98805.89;2125653;83;20872;-78
2021/06/12 05:27:22;;;;;;;14.68;12.78;;;;;;;19.53;59.40;98800.19;2147945;83;20915;-76
2021/06/12 05:30:23;;;;;;;15.28;13.75;;;;;;;19.56;59.63;98794.81;2147528;83;20987;-77
2021/06/12 05:33:24;;;;;;;14.70;12.98;;;;;;;19.31;59.33;98801.12;2147794;83;20916;-76
2021/06/12 05:36:25;;;;;;;54.93;16.93;;;;;;;19.19;60.08;98789.06;2147769;83;20931;-77
2021/06/12 05:39:26;;;;;;;22.20;14.45;;;;;;;19.18;60.58;98794.39;2147808;82;20991;-77
2021/06/12 05:42:27;;;;;;;15.23;13.62;;;;;;;19.54;61.37;98790.88;2147775;83;20964;-77
2021/06/12 05:45:28;;;;;;;17.12;14.20;;;;;;;19.97;60.72;98787.14;2147836;83;20932;-77
2021/06/12 05:48:29;;;;;;;20.45;13.10;;;;;;;20.60;59.77;98783.63;2147764;83;20920;-78
2021/06/12 05:51:30;;;;;;;21.70;12.10;;;;;;;21.10;58.36;98786.55;2147877;83;20915;-77
2021/06/12 05:54:31;;;;;;;15.93;12.53;;;;;;;21.77;57.05;98773.77;2147725;83;20952;-77
2021/06/12 05:57:32;;;;;;;20.32;13.90;;;;;;;22.37;55.86;98781.84;2147890;83;20920;-78
2021/06/12 06:00:33;;;;;;;13.60;12.23;;;;;;;22.91;54.86;98776.75;2147986;83;20928;-77
2021/06/12 06:03:34;;;;;;;16.07;12.45;;;;;;;23.32;53.00;98773.30;2147789;83;20935;-77
2021/06/12 06:06:35;;;;;;;14.90;13.50;;;;;;;23.64;51.84;98768.50;2147857;83;20955;-77
2021/06/12 06:09:36;;;;;;;11.22;10.10;;;;;;;23.91;51.17;98764.65;2155485;81;21048;-77
2021/06/12 06:12:37;;;;;;;15.00;12.30;;;;;;;23.59;48.91;98763.36;2169003;82;20916;-78
2021/06/12 06:15:38;;;;;;;11.25;10.23;;;;;;;23.12;49.44;98759.92;2168993;82;20941;-77
2021/06/12 06:18:39;;;;;;;13.68;12.28;;;;;;;22.68;50.11;98764.30;2168981;82;20928;-77
2021/06/12 06:21:40;;;;;;;12.03;10.82;;;;;;;22.51;51.50;98763.58;2168519;82;21118;-77
2021/06/12 06:24:42;;;;;;;14.13;11.30;;;;;;;23.10;51.84;98767.11;2168808;82;20964;-78
2021/06/12 06:27:44;;;;;;;12.60;10.98;;;;;;;23.25;51.07;98762.96;2169147;82;21012;-77
2021/06/12 06:30:44;;;;;;;11.10;10.10;;;;;;;23.46;49.41;98762.11;2168951;82;21163;-77
2021/06/12 06:33:45;;;;;;;12.60;9.90;;;;;;;23.18;50.12;98771.66;2168934;82;21356;-77
2021/06/12 06:36:46;;;;;;;10.90;9.80;;;;;;;23.65;49.49;98766.23;2168861;82;21443;-77
2021/06/12 06:39:47;;;;;;;10.72;9.55;;;;;;;23.32;49.36;98765.77;2168887;81;21031;-78
2021/06/12 06:45:51;;;;;;;11.97;8.95;;;;;;;23.40;50.20;98760.53;2146412;82;21300;-77
2021/06/12 06:48:52;;;;;;;9.40;8.40;;;;;;;23.74;50.18;98760.05;2168835;82;20967;-77
2021/06/12 06:51:53;;;;;;;9.75;8.78;;;;;;;23.87;49.27;98759.52;2168658;82;20964;-76
2021/06/12 06:54:55;;;;;;;8.68;7.53;;;;;;;23.65;47.55;98757.77;2168824;82;20980;-76
2021/06/12 06:57:56;;;;;;;12.98;8.48;;;;;;;23.47;48.30;98758.05;2169287;82;20989;-79
2021/06/12 07:00:57;;;;;;;10.10;6.72;;;;;;;23.65;48.60;98754.24;2169490;82;20924;-80
2021/06/12 07:03:58;;;;;;;7.70;6.40;;;;;;;23.74;48.11;98751.19;2169501;82;20976;-80
2021/06/12 07:07:00;;;;;;;10.08;6.97;;;;;;;23.97;48.13;98755.05;2169422;82;20999;-79
2021/06/12 07:10:01;;;;;;;7.53;5.97;;;;;;;24.41;46.76;98758.94;2169256;81;21020;-79
2021/06/12 07:13:02;;;;;;;6.28;5.40;;;;;;;24.46;46.60;98750.25;2169742;82;21039;-80
2021/06/12 07:16:04;;;;;;;6.40;5.80;;;;;;;24.67;45.18;98743.92;2169658;82;20924;-80
2021/06/12 07:19:06;;;;;;;8.25;5.72;;;;;;;24.86;45.67;98733.70;2169455;82;20976;-80
2021/06/12 07:22:07;;;;;;;5.58;5.03;;;;;;;24.84;44.05;98744.92;2169434;82;20905;-79
2021/06/12 07:25:09;;;;;;;5.33;4.85;;;;;;;24.66;44.72;98744.86;2169531;82;20995;-80
2021/06/12 07:28:10;;;;;;;7.55;4.78;;;;;;;24.85;44.29;98733.31;2169542;82;20968;-80
2021/06/12 07:31:11;;;;;;;9.68;5.17;;;;;;;25.11;43.69;98732.95;2169620;82;20969;-79
2021/06/12 07:34:12;;;;;;;6.53;4.53;;;;;;;25.15;42.92;98734.56;2169057;82;21000;-79
2021/06/12 07:37:13;;;;;;;6.80;4.62;;;;;;;25.55;43.68;98727.23;2169360;82;20931;-79
2021/06/12 07:40:15;;;;;;;5.30;4.40;;;;;;;26.06;42.01;98737.10;2169367;81;20995;-80
2021/06/12 07:43:19;;;;;;;6.35;5.12;;;;;;;26.06;40.88;98741.58;2169560;82;20964;-79
2021/06/12 07:46:18;;;;;;;5.35;4.65;;;;;;;26.29;41.56;98741.23;2169318;82;21396;-80
2021/06/12 07:49:19;;;;;;;8.85;4.80;;;;;;;26.63;40.42;98743.83;2169344;82;20940;-80
2021/06/12 07:52:20;;;;;;;6.08;4.22;;;;;;;26.56;39.01;98749.13;2169717;82;20968;-79
2021/06/12 07:55:21;;;;;;;4.75;4.08;;;;;;;26.29;40.35;98746.10;2169447;82;20988;-80
2021/06/12 07:58:22;;;;;;;5.10;3.60;;;;;;;25.70;39.29;98745.19;2169292;82;20924;-80
2021/06/12 08:01:24;;;;;;;6.58;4.00;;;;;;;25.44;40.29;98738.93;2169365;82;21357;-80
2021/06/12 08:04:25;;;;;;;4.40;3.98;;;;;;;25.29;40.72;98748.57;2169185;82;20981;-78
2021/06/12 08:07:26;;;;;;;9.05;4.00;;;;;;;25.61;39.82;98745.63;2169302;82;20901;-80
2021/06/12 08:10:27;;;;;;;11.43;4.40;;;;;;;25.99;41.38;98733.85;2180516;81;20987;-79
2021/06/12 08:13:28;;;;;;;8.03;3.80;;;;;;;26.42;39.57;98731.62;2192314;81;20951;-78
2021/06/12 08:16:29;;;;;;;4.50;3.60;;;;;;;26.37;39.12;98731.01;2192612;81;20967;-79
2021/06/12 08:19:30;;;;;;;6.12;4.12;;;;;;;26.39;39.46;98734.94;2192465;81;20967;-80
2021/06/12 08:22:31;;;;;;;4.20;3.83;;;;;;;26.42;38.53;98727.61;2192804;81;20944;-80
2021/06/12 08:25:32;;;;;;;4.95;3.83;;;;;;;26.31;38.87;98726.82;2192624;81;20942;-78
2021/06/12 08:28:33;;;;;;;4.78;3.42;;;;;;;26.11;39.13;98727.49;2192692;81;21252;-80
2021/06/12 08:31:34;;;;;;;5.03;4.17;;;;;;;26.45;38.83;98725.23;2192671;81;21292;-80
2021/06/12 08:34:34;;;;;;;6.70;3.80;;;;;;;26.81;38.20;98720.53;2192581;81;21355;-80
2021/06/12 08:37:35;;;;;;;4.70;3.60;;;;;;;26.64;37.08;98721.47;2192599;81;21291;-81
2021/06/12 08:40:36;;;;;;;4.35;3.77;;;;;;;26.94;38.91;98711.36;2192501;80;21362;-79
2021/06/12 08:43:37;;;;;;;7.28;3.50;;;;;;;27.14;37.62;98708.44;2192552;81;20975;-80
2021/06/12 08:46:38;;;;;;;3.98;3.62;;;;;;;27.33;37.91;98710.05;2192406;81;21331;-80
2021/06/12 08:49:39;;;;;;;4.67;4.05;;;;;;;27.44;37.59;98704.44;2192594;81;20912;-81
2021/06/12 08:52:40;;;;;;;4.22;3.67;;;;;;;27.65;36.81;98699.66;2192379;81;21307;-80
2021/06/12 08:55:41;;;;;;;6.35;3.98;;;;;;;27.87;36.44;98696.57;2192476;81;20900;-79
2021/06/12 08:58:42;;;;;;;7.90;3.80;;;;;;;27.46;36.10;98692.29;2192600;81;20943;-79
2021/06/12 09:01:43;;;;;;;4.80;2.83;;;;;;;27.63;37.39;98687.30;2192487;81;21367;-79
2021/06/12 09:04:45;;;;;;;5.22;3.17;;;;;;;27.77;35.10;98685.54;2192451;81;20990;-79
2021/06/12 09:07:46;;;;;;;3.67;3.37;;;;;;;27.54;35.54;98681.97;2192348;81;21311;-80
2021/06/12 09:10:47;;;;;;;4.45;3.52;;;;;;;27.31;36.39;98684.68;2183824;80;20987;-82
2021/06/12 09:13:48;;;;;;;4.70;3.27;;;;;;;27.73;36.31;98679.95;2176287;82;20928;-80
2021/06/12 09:16:49;;;;;;;26.45;5.58;;;;;;;28.21;36.11;98673.89;2176314;82;21419;-80
2021/06/12 09:19:50;;;;;;;3.30;3.10;;;;;;;28.51;35.07;98672.45;2176175;81;20908;-80
2021/06/12 09:22:51;;;;;;;4.60;3.05;;;;;;;28.68;35.19;98677.64;2176616;82;21324;-81
2021/06/12 09:25:52;;;;;;;3.05;2.50;;;;;;;28.83;34.29;98683.39;2176400;82;21328;-80
2021/06/12 09:28:52;;;;;;;6.15;3.20;;;;;;;28.68;34.07;98680.81;2176289;82;21319;-81
2021/06/12 09:31:54;;;;;;;8.48;3.27;;;;;;;28.47;34.38;98678.50;2176221;82;20955;-80
2021/06/12 09:34:55;;;;;;;3.40;2.80;;;;;;;28.52;34.96;98675.05;2176328;82;20956;-80
2021/06/12 09:37:56;;;;;;;3.27;2.98;;;;;;;28.78;33.96;98673.88;2176365;82;20983;-79
2021/06/12 09:40:57;;;;;;;3.75;3.02;;;;;;;28.37;33.41;98661.26;2176231;80;20999;-79
2021/06/12 09:43:58;;;;;;;3.77;3.47;;;;;;;28.12;33.78;98657.02;2176289;81;21000;-80
2021/06/12 09:46:59;;;;;;;4.40;3.42;;;;;;;28.37;35.12;98649.18;2176218;82;20935;-80
2021/06/12 09:50:00;;;;;;;3.35;3.00;;;;;;;28.98;33.25;98649.29;2176391;82;20935;-80
2021/06/12 09:53:01;;;;;;;3.70;3.30;;;;;;;29.26;34.16;98642.92;2176198;82;20983;-81
2021/06/12 09:56:03;;;;;;;3.50;3.20;;;;;;;29.59;33.51;98646.55;2176207;82;21364;-79
2021/06/12 09:59:04;;;;;;;3.37;3.08;;;;;;;29.69;33.29;98642.27;2176318;82;20968;-80
2021/06/12 10:02:05;;;;;;;5.20;3.40;;;;;;;29.96;32.81;98633.23;2176500;82;21301;-79
2021/06/12 10:05:06;;;;;;;4.05;3.27;;;;;;;29.77;32.47;98634.52;2176563;82;20916;-80
2021/06/12 10:08:07;;;;;;;8.95;3.55;;;;;;;28.88;31.98;98631.19;2176242;82;20999;-79
2021/06/12 10:11:08;;;;;;;3.87;3.58;;;;;;;28.36;33.62;98628.66;2184769;80;20980;-79
2021/06/12 10:14:09;;;;;;;4.22;3.80;;;;;;;28.39;34.52;98627.13;2192803;81;21335;-79
2021/06/12 10:17:10;;;;;;;4.75;4.10;;;;;;;28.28;34.65;98619.38;2192610;81;20908;-78
2021/06/12 10:20:12;;;;;;;7.45;4.00;;;;;;;28.34;35.46;98614.48;2192459;81;21007;-79
2021/06/12 10:23:12;;;;;;;5.97;3.72;;;;;;;28.54;34.52;98619.42;2192574;81;20923;-80
2021/06/12 10:26:13;;;;;;;5.03;3.92;;;;;;;28.39;34.48;98614.19;2192414;81;20986;-79
2021/06/12 10:29:16;;;;;;;5.87;4.10;;;;;;;28.64;35.20;98598.23;2192398;81;20924;-78
2021/06/12 10:32:17;;;;;;;6.60;3.80;;;;;;;29.16;34.38;98597.00;2192555;81;20991;-79
2021/06/12 10:35:18;;;;;;;9.65;4.28;;;;;;;29.32;33.20;98594.12;2192479;81;21336;-79
2021/06/12 10:38:20;;;;;;;6.92;4.12;;;;;;;28.90;34.82;98586.28;2192398;81;20908;-79
2021/06/12 10:41:21;;;;;;;3.90;3.60;;;;;;;28.87;34.52;98588.69;2192403;80;21423;-80
2021/06/12 10:44:22;;;;;;;4.90;3.60;;;;;;;28.70;34.08;98588.91;2192298;81;21415;-79
2021/06/12 10:47:24;;;;;;;3.80;3.50;;;;;;;28.51;33.83;98600.83;2192455;81;20976;-81
2021/06/12 10:50:26;;;;;;;3.87;3.27;;;;;;;28.28;33.44;98598.77;2192648;81;20923;-81
2021/06/12 10:53:34;;;;;;;8.55;3.15;;;;;;;27.96;33.04;98600.78;2192712;81;20927;-80
2021/06/12 10:56:35;;;;;;;3.92;3.52;;;;;;;27.76;33.99;98591.30;2192279;81;20964;-80
2021/06/12 10:59:36;;;;;;;4.35;3.40;;;;;;;27.78;34.22;98586.70;2192482;81;20927;-81
2021/06/12 11:02:42;;;;;;;4.33;3.35;;;;;;;27.74;34.83;98595.00;2192518;81;20959;-81
2021/06/12 11:05:42;;;;;;;4.42;3.77;;;;;;;27.66;34.69;98596.81;2192064;81;20995;-80
2021/06/12 11:08:44;;;;;;;4.17;3.77;;;;;;;27.67;34.10;98599.88;2192473;81;20923;-81
2021/06/12 11:11:45;;;;;;;5.00;3.87;;;;;;;27.38;35.30;98586.02;2176736;80;20964;-81
2021/06/12 11:14:46;;;;;;;4.72;4.30;;;;;;;27.42;34.90;98587.55;2168945;82;20937;-79
2021/06/12 11:17:46;;;;;;;5.08;3.95;;;;;;;26.95;35.41;98576.48;2169344;82;20961;-82
2021/06/12 11:20:48;;;;;;;5.22;3.90;;;;;;;27.02;36.01;98568.52;2169158;82;21361;-81
2021/06/12 11:23:53;;;;;;;8.45;4.28;;;;;;;26.98;35.85;98546.88;2169286;82;20921;-81
2021/06/12 11:26:52;;;;;;;5.58;3.95;;;;;;;27.21;36.67;98541.00;2168945;82;21344;-81
2021/06/12 11:29:52;;;;;;;5.45;4.35;;;;;;;27.40;36.32;98539.88;2169204;82;20940;-80
2021/06/12 11:32:57;;;;;;;6.12;4.45;;;;;;;27.54;36.80;98539.89;2169296;82;20929;-80
2021/06/12 11:35:59;;;;;;;5.72;4.08;;;;;;;27.59;36.44;98524.38;2169020;82;21029;-81
2021/06/12 11:39:00;;;;;;;5.80;4.20;;;;;;;27.72;36.58;98523.17;2169637;82;21360;-79
2021/06/12 11:42:01;;;;;;;5.47;4.10;;;;;;;27.84;36.33;98515.72;2169369;81;21275;-80
2021/06/12 11:45:02;;;;;;;4.37;3.75;;;;;;;28.11;36.11;98513.09;2169381;82;20991;-79
2021/06/12 11:48:03;;;;;;;5.80;4.33;;;;;;;28.33;35.75;98520.16;2169209;82;20917;-80
2021/06/12 11:51:04;;;;;;;7.37;4.80;;;;;;;28.26;36.09;98517.97;2169188;82;20987;-81
2021/06/12 11:54:04;;;;;;;4.83;4.15;;;;;;;28.41;36.34;98507.09;2169353;82;20928;-81
2021/06/12 11:57:07;;;;;;;6.33;4.25;;;;;;;28.63;35.85;98504.35;2169087;82;20937;-79
2021/06/12 12:00:08;;;;;;;4.33;4.03;;;;;;;28.76;36.03;98490.48;2169137;82;20984;-82
2021/06/12 12:03:09;;;;;;;5.40;4.42;;;;;;;29.01;34.70;98483.84;2169342;82;20964;-80
2021/06/12 12:06:10;;;;;;;4.45;4.05;;;;;;;28.94;34.94;98478.98;2169265;82;20956;-80
2021/06/12 12:09:11;;;;;;;7.87;4.25;;;;;;;29.10;34.15;98472.94;2169367;82;21388;-79
2021/06/12 12:12:12;;;;;;;3.87;3.67;;;;;;;29.12;34.18;98475.89;2186837;81;21026;-80
2021/06/12 12:15:13;;;;;;;6.95;4.12;;;;;;;28.88;33.39;98473.55;2193276;81;20947;-79
2021/06/12 12:18:14;;;;;;;5.42;4.47;;;;;;;28.99;32.59;98485.77;2193121;81;20922;-79
2021/06/12 12:21:15;;;;;;;4.10;3.70;;;;;;;29.13;33.59;98464.66;2193183;81;20900;-78
2021/06/12 12:24:16;;;;;;;5.50;4.08;;;;;;;29.25;32.61;98462.94;2193133;81;20931;-79
2021/06/12 12:27:20;;;;;;;5.08;4.22;;;;;;;29.18;32.77;98451.77;2193119;81;21003;-78
2021/06/12 12:30:20;;;;;;;6.08;3.80;;;;;;;28.98;32.83;98450.46;2192838;81;20988;-80
2021/06/12 12:33:23;;;;;;;7.33;4.40;;;;;;;28.77;33.96;98438.00;2192395;81;21020;-79
2021/06/12 12:36:24;;;;;;;6.45;4.28;;;;;;;28.60;34.42;98428.00;2192641;81;20988;-81
2021/06/12 12:39:25;;;;;;;5.40;4.22;;;;;;;28.41;35.15;98423.02;2192878;81;20888;-80
2021/06/12 12:42:26;;;;;;;4.87;4.47;;;;;;;28.32;35.40;98416.44;2192799;81;21030;-80
2021/06/12 12:45:28;;;;;;;8.68;4.30;;;;;;;28.20;35.75;98415.89;2192775;81;21019;-81
2021/06/12 12:48:28;;;;;;;4.95;3.65;;;;;;;28.20;35.63;98418.57;2192836;81;20957;-82
2021/06/12 12:51:29;;;;;;;4.45;4.15;;;;;;;28.12;35.84;98412.85;2192906;81;20920;-80
2021/06/12 12:54:30;;;;;;;4.53;4.10;;;;;;;28.12;35.73;98415.05;2192796;81;20967;-80
2021/06/12 12:57:31;;;;;;;4.50;4.10;;;;;;;28.35;35.15;98400.13;2192760;81;20935;-81
2021/06/12 13:00:33;;;;;;;4.67;4.30;;;;;;;28.43;35.11;98400.47;2192733;81;20915;-79
2021/06/12 13:03:34;;;;;;;4.17;3.87;;;;;;;28.54;35.03;98396.58;2193010;81;20988;-82
2021/06/12 13:06:35;;;;;;;4.37;3.98;;;;;;;28.76;35.11;98397.33;2192632;81;21299;-81
2021/06/12 13:09:36;;;;;;;4.65;4.35;;;;;;;28.79;34.61;98393.09;2192778;81;20923;-81
2021/06/12 13:12:37;;;;;;;4.78;4.37;;;;;;;28.88;34.86;98395.66;2174162;80;20976;-80
2021/06/12 13:15:38;;;;;;;4.58;4.17;;;;;;;28.81;35.08;98398.36;2169177;82;20968;-79
2021/06/12 13:18:39;;;;;;;5.17;4.62;;;;;;;28.75;35.18;98405.50;2169834;82;20901;-81
2021/06/12 13:21:40;;;;;;;6.42;4.45;;;;;;;28.70;35.46;98407.16;2169937;82;20944;-79
2021/06/12 13:24:40;;;;;;;5.83;4.70;;;;;;;28.61;35.70;98401.52;2170331;82;20933;-81
2021/06/12 13:27:42;;;;;;;7.10;5.15;;;;;;;28.47;36.06;98397.09;2169727;82;20996;-81
2021/06/12 13:30:43;;;;;;;5.25;4.67;;;;;;;28.07;36.73;98396.20;2169870;82;20940;-79
2021/06/12 13:33:44;;;;;;;6.10;5.40;;;;;;;28.13;37.07;98386.40;2170309;82;20913;-80
2021/06/12 13:36:45;;;;;;;8.95;5.83;;;;;;;28.09;37.16;98383.06;2169840;82;20916;-80
2021/06/12 13:39:46;;;;;;;8.05;6.05;;;;;;;28.00;37.45;98378.79;2169924;82;20916;-79
2021/06/12 13:42:46;;;;;;;5.25;4.75;;;;;;;27.96;37.64;98383.50;2169926;82;21062;-83
2021/06/12 13:45:48;;;;;;;9.40;5.28;;;;;;;27.98;37.78;98380.71;2170164;82;21012;-80
2021/06/12 13:48:50;;;;;;;6.55;5.22;;;;;;;27.98;38.09;98382.91;2169450;82;21081;-80
2021/06/12 13:51:51;;;;;;;5.50;5.00;;;;;;;27.91;38.32;98378.92;2170313;82;20940;-81
2021/06/12 13:54:52;;;;;;;6.40;5.50;;;;;;;27.71;38.96;98380.67;2170041;82;20933;-80
2021/06/12 13:57:53;;;;;;;6.37;5.50;;;;;;;27.37;39.79;98372.57;2170443;82;20960;-80
2021/06/12 14:00:55;;;;;;;6.85;6.03;;;;;;;27.21;40.24;98362.83;2170183;82;20944;-80
2021/06/12 14:03:56;;;;;;;6.65;6.03;;;;;;;27.05;40.66;98371.45;2170189;82;21415;-80
2021/06/12 14:06:57;;;;;;;9.98;5.85;;;;;;;26.84;41.26;98370.03;2169818;82;20960;-80
2021/06/12 14:09:58;;;;;;;10.15;7.15;;;;;;;26.65;42.19;98361.80;2169904;81;21174;-80